Enid, OK

9:46 AM CDT en Julio 29, 2014 (GMT -0500)
pr14 (KOKENID6) Alt 1316 ft | 36.41 °N, 97.93 °W | Change Station
Aviso en curso: Flash Flood Watch

Current weather conditions updated 3 seconds ago

Scattered Clouds
Nubes dispersas
78.1 ° F
Sensación térmica 80 ° F
N
1.0
Viento Variable Viento desde SE
Gusts 5.0 mph

Hoy se prevé un día Más cálido que ayer. Tormentas de madrugada. tonight.

Hoy
Alta -- | Baja -- ° F
--% Posibilidad de precipitaciones
Ayer
Alta -- | Baja -- ° F
Precip. -- pul
6:35 AM 8:39 PM
Creciente, 6% visible
Presión 30.16 pul
Visibilidad 10.0 Millas
Nubes Nubes dispersas 18000 ft
Índice de calor 80 ° F
Punto de rocío 66 ° F
Humedad 66%
Precipitaciones 0.00 pul
Espesor de la nieve No disponible.
UV 3.4 de una escala de 12
Polen 5.60 de una escala de 12
Calidad del aire No disponible.
Flu Activity No disponible.
METAR KWDG 291350Z 11005KT 10SM SCT180 26/18 A3016

More Conditions Fewer Conditions

Presión 30.16 pul
Visibilidad 10.0 Millas
Nubes Nubes dispersas 18000 ft
Índice de calor 80 ° F
Punto de rocío 66 ° F
Humedad 66%
Precipitaciones 0.00 pul
Espesor de la nieve No disponible.
UV 3.4 de una escala de 12
Polen 5.60 de una escala de 12
Calidad del aire No disponible.
Flu Activity No disponible.
METAR KWDG 291350Z 11005KT 10SM SCT180 26/18 A3016

More Conditions Fewer Conditions

10-Day Weather Forecast

Almanac

Astronomía

Jul. 29, 2014 Salida Puesta
Hora real 6:35 AM CDT 8:39 PM CDT
Crepúsculo civil 6:06 AM CDT 9:08 PM CDT
Crepúsculo náutico 5:31 AM CDT 9:43 PM CDT
Crepúsculo astronómico 4:54 AM CDT 10:20 PM CDT
Luna 9:07 AM CDT 9:59 PM CDT
Horas de luz 15h 01m
Horas de luz
14h 04m
Tomorrow will be 1m 40s shorter.
Creciente, 6% of the Moon is Illuminated
Hoy
Creciente
Ago 3
Cuarto creciente
Ago 10
Luna llena
Ago 17
Cuarto menguante
Ago 25
Nueva

Extremos de hoy

Máximos del estado Bajos del estado

Community

WunderPhotos

Upload Photos

1,738,749 ¡fotos cargadas!

Nearby

Grosos de nieve

Estación Profundido Altura
No tenemos constancia de nieve nueva.

Actividad de terremotos

Ciudad Distance Mag. Tiempo y dato
Guthrie, Oklahoma 47 Millas 2.7 5:27 AM CDT
2014-07-24
Langston, Oklahoma 48 Millas 3.2 9:03 AM CDT
2014-07-23
Langston, Oklahoma 46 Millas 3.3 9:02 PM CDT
2014-07-22
Guthrie, Oklahoma 46 Millas 2.5 7:25 PM CDT
2014-07-22
Magnitud mínima muestra es 2,5.

Temperaturas de aguas costeras

Lugar Temperatura
Sin partes meteorológicos de las estaciones

Estaciones meteorológicas cercanas

Ubicación de la estación Temp. Índice de calor Punto de rocío Humedad Viento Precip. Alt Actualizado Tipo
pr14, Enid, OK 78.1 ° F 80 ° F 66 ° F 66% SE  a  1.0 mph 0.00 pul / hr 1316 ft 9:46 AM CDT Normal
MesoWest PNDCRK , Pond Creek, OK 72 ° F - - - Norte  a  - 0.00 pul / hr 1068 ft 8:35 AM CDT MADIS
MesoWest HENESY , Hennessey, OK 126 ° F 107 ° F - - Norte  a  - 0.00 pul / hr 1166 ft 7:20 AM CDT MADIS

Show More Stations Show Fewer Stations